Time;durP1;ratioP1;P1;durP2;ratioP2;P2;SDS_P1;SDS_P2;PMS_P1;PMS_P2;Temp;Humidity;BMP_temperature;BMP_pressure;BME280_temperature;BME280_humidity;BME280_pressure;Samples;Min_cycle;Max_cycle;Signal;HPM_P1;HPM_P2
2021/03/22 00:00:00;;;;;;;26.43;19.27;;;;;;;0.77;84.68;98428.17;123415;1102;65353;-83
2021/03/22 00:02:26;;;;;;;24.27;16.83;;;;;;;0.79;84.50;98438.59;123820;1102;65049;-83
2021/03/22 00:04:52;;;;;;;22.73;17.40;;;;;;;0.80;84.61;98432.45;123853;1102;64956;-83
2021/03/22 00:07:19;;;;;;;23.20;18.23;;;;;;;0.79;83.92;98435.97;123805;1102;64912;-82
2021/03/22 00:09:45;;;;;;;26.27;20.30;;;;;;;0.79;84.48;98444.72;123799;1102;64959;-83
2021/03/22 00:12:12;;;;;;;24.60;19.30;;;;;;;0.81;83.88;98442.02;123493;1102;65023;-83
2021/03/22 00:14:38;;;;;;;25.70;19.83;;;;;;;0.84;83.74;98452.40;123445;1105;65364;-82
2021/03/22 00:17:05;;;;;;;26.83;20.10;;;;;;;0.86;84.12;98453.20;123893;1102;64902;-82
2021/03/22 00:19:31;;;;;;;26.77;18.53;;;;;;;0.86;84.09;98459.30;123488;1102;64989;-83
2021/03/22 00:21:58;;;;;;;27.47;19.47;;;;;;;0.88;83.55;98462.73;123816;1102;65021;-83
2021/03/22 00:24:24;;;;;;;27.93;19.33;;;;;;;0.88;83.98;98464.50;123887;1102;64908;-81
2021/03/22 00:26:50;;;;;;;25.30;17.53;;;;;;;0.88;83.75;98464.50;123757;1102;64988;-83
2021/03/22 00:29:17;;;;;;;32.80;21.43;;;;;;;0.84;83.57;98471.64;123777;1102;64969;-84
2021/03/22 00:31:43;;;;;;;27.07;18.40;;;;;;;0.82;83.49;98462.11;123475;1102;64918;-81
2021/03/22 00:34:09;;;;;;;34.23;20.10;;;;;;;0.83;83.04;98469.91;123876;1102;64860;-81
2021/03/22 00:36:36;;;;;;;26.93;18.80;;;;;;;0.85;82.92;98469.87;123436;1102;64895;-81
2021/03/22 00:39:03;;;;;;;26.77;19.33;;;;;;;0.85;83.43;98469.87;123434;1102;65036;-82
2021/03/22 00:41:29;;;;;;;31.67;20.67;;;;;;;0.83;82.87;98471.69;123839;1101;64918;-83
2021/03/22 00:43:55;;;;;;;36.40;23.20;;;;;;;0.81;83.29;98468.25;123862;1102;64889;-82
2021/03/22 00:46:22;;;;;;;25.67;19.50;;;;;;;0.79;82.82;98470.06;123459;1102;64822;-83
2021/03/22 00:48:48;;;;;;;25.63;18.03;;;;;;;0.77;82.92;98471.91;123832;1102;64908;-82
2021/03/22 00:51:15;;;;;;;25.43;19.50;;;;;;;0.74;82.34;98469.37;123461;1102;64968;-82
2021/03/22 00:53:41;;;;;;;25.00;16.63;;;;;;;0.71;82.82;98472.99;123838;1102;64908;-83
2021/03/22 00:56:07;;;;;;;30.20;19.60;;;;;;;0.64;82.26;98474.11;123907;1102;64866;-82
2021/03/22 00:58:34;;;;;;;30.20;19.65;;;;;;;0.57;82.39;98467.36;123466;1102;64905;-84
2021/03/22 01:01:01;;;;;;;26.90;19.30;;;;;;;0.53;82.49;98474.48;123499;1102;64937;-83
2021/03/22 01:03:30;;;;;;;27.17;18.57;;;;;;;0.49;82.64;98483.35;123896;1102;64995;-83
2021/03/22 01:05:58;;;;;;;31.23;20.77;;;;;;;0.42;82.48;98480.10;123852;1102;64892;-82
2021/03/22 01:08:27;;;;;;;33.93;21.33;;;;;;;0.36;82.86;98488.16;123868;1102;64888;-82
2021/03/22 01:10:58;;;;;;;38.48;23.98;;;;;;;0.31;82.34;98495.31;123820;1102;64892;-82
2021/03/22 01:13:31;;;;;;;34.03;20.70;;;;;;;0.25;82.60;98502.54;123445;1102;65342;-83
2021/03/22 01:15:59;;;;;;;34.37;22.30;;;;;;;0.19;82.98;98491.35;123836;1102;64927;-83
2021/03/22 01:18:30;;;;;;;37.17;23.53;;;;;;;0.14;82.41;98500.28;123894;1102;64863;-83
2021/03/22 01:21:03;;;;;;;33.65;23.90;;;;;;;0.10;82.86;98501.27;123455;1102;65025;-82
2021/03/22 01:23:29;;;;;;;30.40;22.55;;;;;;;0.05;82.90;98503.18;123501;1105;64950;-83
2021/03/22 01:25:55;;;;;;;35.10;23.23;;;;;;;0.02;82.55;98506.75;123824;1102;64952;-82
2021/03/22 01:28:22;;;;;;;29.90;21.00;;;;;;;-0.01;82.20;98504.23;123859;1102;64934;-83
2021/03/22 01:30:52;;;;;;;32.73;21.37;;;;;;;-0.05;82.68;98505.26;123789;1102;64888;-83
2021/03/22 01:33:25;;;;;;;29.60;19.90;;;;;;;-0.07;82.86;98510.53;123877;1102;65342;-82
2021/03/22 01:35:53;;;;;;;31.63;23.03;;;;;;;-0.11;82.73;98505.44;123489;1103;64953;-83
2021/03/22 01:38:20;;;;;;;33.90;23.27;;;;;;;-0.15;82.12;98509.92;123779;1102;64928;-84
2021/03/22 01:41:02;;;;;;;35.90;22.23;;;;;;;-0.16;82.19;98507.34;123459;1102;64914;-83
2021/03/22 01:43:36;;;;;;;35.27;21.77;;;;;;;-0.18;82.08;98506.55;123836;1101;64917;-84
2021/03/22 01:46:04;;;;;;;34.33;24.00;;;;;;;-0.24;82.12;98511.08;123503;1102;64911;-83
2021/03/22 01:48:31;;;;;;;30.50;21.55;;;;;;;-0.24;81.98;98515.43;123499;1102;64838;-84
2021/03/22 01:50:58;;;;;;;28.53;19.83;;;;;;;-0.23;82.37;98522.41;123798;1102;66321;-84
2021/03/22 01:53:24;;;;;;;23.30;17.20;;;;;;;-0.22;82.72;98522.34;123498;1103;64899;-83
2021/03/22 01:55:50;;;;;;;31.15;19.35;;;;;;;-0.18;82.54;98523.13;123843;1102;64940;-84
2021/03/22 01:58:19;;;;;;;27.80;19.40;;;;;;;-0.16;81.75;98523.05;123525;1106;64946;-83
2021/03/22 02:00:45;;;;;;;23.30;18.27;;;;;;;-0.14;81.92;98526.48;123557;1102;64905;-85
2021/03/22 02:03:16;;;;;;;21.82;16.15;;;;;;;-0.12;82.29;98532.55;123524;1102;65029;-84
2021/03/22 02:05:49;;;;;;;25.13;16.87;;;;;;;-0.15;81.76;98528.26;123537;1102;65030;-84
2021/03/22 02:08:25;;;;;;;22.07;15.87;;;;;;;-0.16;81.60;98516.05;123806;1102;64914;-85
2021/03/22 02:10:52;;;;;;;23.37;15.43;;;;;;;-0.19;82.29;98531.86;123456;1105;64998;-86
2021/03/22 02:13:24;;;;;;;23.63;16.30;;;;;;;-0.22;81.92;98526.72;123485;1102;64907;-83
2021/03/22 02:16:06;;;;;;;21.40;14.00;;;;;;;-0.24;81.95;98523.28;123860;1102;64835;-84
2021/03/22 02:18:44;;;;;;;21.37;13.87;;;;;;;-0.26;82.27;98522.50;123742;1102;64837;-83
2021/03/22 02:21:48;;;;;;;22.45;14.95;;;;;;;-0.28;81.38;98529.54;123929;1102;64919;-83
2021/03/22 02:24:28;;;;;;;23.03;13.97;;;;;;;-0.29;82.17;98533.05;123794;1102;64821;-83
2021/03/22 02:27:06;;;;;;;22.65;14.80;;;;;;;-0.28;81.77;98545.25;123905;1102;65380;-86
2021/03/22 02:29:57;;;;;;;23.77;14.47;;;;;;;-0.28;82.08;98529.54;123839;1102;65022;-85
2021/03/22 02:33:05;;;;;;;20.30;13.80;;;;;;;-0.30;81.24;98542.66;123828;1102;65014;-83
2021/03/22 02:35:34;;;;;;;17.53;13.50;;;;;;;-0.31;81.61;98547.97;123136;1105;65077;-83
2021/03/22 02:38:21;;;;;;;23.83;14.67;;;;;;;-0.31;81.17;98547.97;123716;1102;64889;-83
2021/03/22 02:40:57;;;;;;;21.05;14.30;;;;;;;-0.30;81.19;98542.66;123791;1102;64893;-83
2021/03/22 02:43:23;;;;;;;20.93;12.83;;;;;;;-0.30;81.50;98553.14;123796;1102;65010;-84
2021/03/22 02:45:55;;;;;;;20.57;12.53;;;;;;;-0.29;81.40;98546.13;123506;1102;64892;-83
2021/03/22 02:48:24;;;;;;;19.87;14.13;;;;;;;-0.27;81.33;98552.19;123452;1102;64917;-84
2021/03/22 02:50:55;;;;;;;23.97;16.10;;;;;;;-0.27;81.46;98549.57;123908;1102;64927;-85
2021/03/22 02:53:46;;;;;;;24.97;19.67;;;;;;;-0.26;81.95;98562.63;123808;1102;64909;-84
2021/03/22 02:56:22;;;;;;;35.60;22.87;;;;;;;-0.26;81.30;98556.55;123808;1102;65068;-84
2021/03/22 02:59:02;;;;;;;28.60;19.23;;;;;;;-0.23;81.92;98559.06;123855;1102;64915;-84
2021/03/22 03:01:44;;;;;;;25.80;16.80;;;;;;;-0.24;81.54;98560.83;123821;1102;64895;-84
2021/03/22 03:04:14;;;;;;;24.27;16.83;;;;;;;-0.25;81.29;98558.24;123757;1102;65329;-85
2021/03/22 03:06:48;;;;;;;23.87;15.93;;;;;;;-0.27;81.45;98566.13;123845;1102;64904;-84
2021/03/22 03:09:18;;;;;;;34.23;21.10;;;;;;;-0.29;81.41;98565.34;123808;1102;65020;-84
2021/03/22 03:11:45;;;;;;;32.17;21.83;;;;;;;-0.30;81.37;98562.76;123503;1102;64921;-84
2021/03/22 03:14:12;;;;;;;33.20;21.53;;;;;;;-0.31;81.29;98569.77;123466;1102;65288;-84
2021/03/22 03:16:39;;;;;;;33.97;23.47;;;;;;;-0.33;81.11;98570.71;123826;1102;64927;-84
2021/03/22 03:19:06;;;;;;;34.37;22.70;;;;;;;-0.36;81.26;98571.66;123494;1105;65001;-83
2021/03/22 03:21:32;;;;;;;35.23;22.27;;;;;;;-0.37;81.42;98574.31;123849;1102;64957;-83
2021/03/22 03:24:00;;;;;;;41.77;26.53;;;;;;;-0.38;81.63;98577.84;123511;1102;64998;-84
2021/03/22 03:26:27;;;;;;;38.73;25.17;;;;;;;-0.39;81.05;98590.08;123880;1102;64882;-83
2021/03/22 03:28:53;;;;;;;32.10;21.43;;;;;;;-0.42;81.67;98579.70;123509;1102;64914;-83
2021/03/22 03:31:19;;;;;;;28.23;20.27;;;;;;;-0.47;81.76;98590.30;123834;1102;64895;-84
2021/03/22 03:33:46;;;;;;;28.10;18.20;;;;;;;-0.49;81.13;98580.78;123581;1102;65065;-85
2021/03/22 03:36:12;;;;;;;25.93;17.87;;;;;;;-0.52;81.22;98586.95;123489;1102;64968;-85
2021/03/22 03:38:39;;;;;;;28.73;19.57;;;;;;;-0.59;81.31;98588.02;123521;1102;64878;-85
2021/03/22 03:41:05;;;;;;;35.97;20.17;;;;;;;-0.63;81.19;98590.77;123493;1102;64828;-85
2021/03/22 03:43:31;;;;;;;44.17;24.97;;;;;;;-0.69;81.46;98587.41;123536;1102;64992;-84
2021/03/22 03:45:58;;;;;;;40.38;23.80;;;;;;;-0.73;81.77;98596.27;123424;1102;64955;-84
2021/03/22 03:48:27;;;;;;;42.30;24.90;;;;;;;-0.74;81.33;98589.34;123866;1102;64908;-84
2021/03/22 03:50:57;;;;;;;39.00;24.67;;;;;;;-0.72;81.38;98600.59;123532;1102;65384;-84
2021/03/22 03:53:25;;;;;;;42.90;25.08;;;;;;;-0.73;81.66;98598.03;123908;1102;64911;-85
2021/03/22 03:55:53;;;;;;;39.97;22.17;;;;;;;-0.76;81.26;98601.59;123881;1102;64898;-85
2021/03/22 03:58:19;;;;;;;41.80;23.33;;;;;;;-0.85;82.07;98601.83;123478;1105;65024;-85
2021/03/22 04:00:47;;;;;;;27.47;16.13;;;;;;;-0.93;81.27;98612.50;123829;1102;65017;-86
2021/03/22 04:03:19;;;;;;;20.47;13.53;;;;;;;-1.03;82.16;98616.25;123853;1102;64889;-86
2021/03/22 04:06:05;;;;;;;25.30;15.60;;;;;;;-1.13;81.87;98617.41;123923;1102;64864;-85
2021/03/22 04:08:33;;;;;;;21.83;15.83;;;;;;;-1.21;81.92;98622.84;123859;1102;64920;-84
2021/03/22 04:11:02;;;;;;;24.65;15.30;;;;;;;-1.25;82.21;98623.80;123477;1105;65024;-84
2021/03/22 04:13:30;;;;;;;31.70;20.02;;;;;;;-1.28;81.95;98620.42;123578;1102;64898;-84
2021/03/22 04:15:56;;;;;;;28.57;18.63;;;;;;;-1.27;82.35;98633.43;123519;1102;64909;-84
2021/03/22 04:18:22;;;;;;;31.70;20.07;;;;;;;-1.27;81.84;98636.05;123532;1102;64997;-84
2021/03/22 04:20:50;;;;;;;29.27;18.77;;;;;;;-1.24;81.88;98635.11;123854;1102;65370;-83
2021/03/22 04:23:17;;;;;;;30.73;18.27;;;;;;;-1.24;82.34;98633.34;123461;1102;65035;-85
2021/03/22 04:25:43;;;;;;;33.70;19.73;;;;;;;-1.24;82.04;98635.11;123822;1102;64902;-84
2021/03/22 04:28:10;;;;;;;39.63;23.37;;;;;;;-1.24;82.06;98642.95;123528;1102;65020;-84
2021/03/22 04:30:36;;;;;;;38.70;22.13;;;;;;;-1.26;81.68;98636.89;123891;1102;64908;-84
2021/03/22 04:33:02;;;;;;;32.05;19.80;;;;;;;-1.30;81.67;98643.12;123553;1105;64999;-84
2021/03/22 04:35:30;;;;;;;34.47;18.87;;;;;;;-1.39;81.49;98650.29;123822;1102;65428;-84
2021/03/22 04:37:56;;;;;;;40.20;23.87;;;;;;;-1.47;82.19;98657.46;123459;1105;64972;-84
2021/03/22 04:40:25;;;;;;;42.87;26.10;;;;;;;-1.52;81.37;98664.55;123923;1102;64857;-84
2021/03/22 04:42:52;;;;;;;36.30;21.75;;;;;;;-1.58;81.81;98670.78;123523;1102;64917;-84
2021/03/22 04:45:21;;;;;;;30.70;18.70;;;;;;;-1.59;82.44;98674.27;123498;1102;64969;-85
2021/03/22 04:47:48;;;;;;;29.93;18.63;;;;;;;-1.61;82.14;98676.05;123901;1102;64866;-86
2021/03/22 04:50:20;;;;;;;26.70;17.70;;;;;;;-1.62;82.12;98690.02;123855;1102;64972;-85
2021/03/22 04:52:47;;;;;;;22.00;16.30;;;;;;;-1.63;82.18;98690.92;123513;1102;64883;-85
2021/03/22 04:55:16;;;;;;;19.37;14.40;;;;;;;-1.62;81.46;98689.17;123856;1102;64909;-85
2021/03/22 04:57:42;;;;;;;20.07;15.40;;;;;;;-1.62;81.83;98687.41;123805;1102;64994;-86
2021/03/22 05:00:12;;;;;;;17.97;14.53;;;;;;;-1.59;81.93;98695.17;123464;1105;65054;-86
2021/03/22 05:02:39;;;;;;;20.60;16.07;;;;;;;-1.56;81.64;98689.02;123576;1102;64960;-85
2021/03/22 05:05:09;;;;;;;23.73;16.37;;;;;;;-1.52;82.11;98692.44;123512;1102;64847;-86
2021/03/22 05:07:35;;;;;;;25.83;18.87;;;;;;;-1.50;81.16;98691.52;123511;1102;64969;-85
2021/03/22 05:10:05;;;;;;;26.40;18.83;;;;;;;-1.43;81.44;98692.20;123889;1102;64966;-85
2021/03/22 05:12:32;;;;;;;30.70;20.57;;;;;;;-1.38;80.83;98700.80;123531;1105;65094;-85
2021/03/22 05:14:58;;;;;;;32.50;21.00;;;;;;;-1.38;81.27;98698.19;123846;1102;64973;-83
2021/03/22 05:17:25;;;;;;;31.40;21.10;;;;;;;-1.38;80.87;98706.88;123557;1102;65001;-82
2021/03/22 05:19:52;;;;;;;26.30;18.65;;;;;;;-1.34;81.61;98705.94;123428;1102;64918;-85
2021/03/22 05:22:18;;;;;;;31.37;21.17;;;;;;;-1.32;81.00;98713.72;123553;1105;64950;-85
2021/03/22 05:24:44;;;;;;;29.02;17.37;;;;;;;-1.29;81.19;98715.41;123454;1102;64994;-84
2021/03/22 05:27:11;;;;;;;26.70;18.23;;;;;;;-1.09;79.96;98718.41;123472;1102;64894;-84
2021/03/22 05:29:37;;;;;;;27.17;18.37;;;;;;;-1.00;80.45;98718.20;123800;1102;64888;-82
2021/03/22 05:32:21;;;;;;;27.03;19.50;;;;;;;-0.86;79.63;98716.99;123449;1102;64872;-83
2021/03/22 05:34:48;;;;;;;32.83;19.40;;;;;;;-0.93;79.62;98722.35;123903;1102;65020;-83
2021/03/22 05:37:14;;;;;;;30.03;19.70;;;;;;;-0.79;79.53;98721.14;123791;1102;65288;-84
2021/03/22 05:39:40;;;;;;;29.40;18.77;;;;;;;-0.42;79.18;98730.65;123477;1105;65086;-84
2021/03/22 05:42:34;;;;;;;28.57;20.93;;;;;;;-0.15;78.44;98719.44;123797;1102;64895;-83
2021/03/22 05:45:31;;;;;;;34.83;22.27;;;;;;;0.16;78.46;98722.05;123870;1101;64870;-84
2021/03/22 05:48:06;;;;;;;34.87;22.83;;;;;;;0.43;77.59;98719.50;123430;1102;65014;-84
2021/03/22 05:50:46;;;;;;;34.87;22.77;;;;;;;0.58;77.29;98715.53;123797;1102;64904;-84
2021/03/22 05:53:53;;;;;;;31.33;20.57;;;;;;;0.75;77.05;98718.49;123839;1102;64912;-83
2021/03/22 05:56:32;;;;;;;33.73;22.50;;;;;;;0.85;76.27;98716.44;123791;1102;64908;-84
2021/03/22 05:59:11;;;;;;;31.23;21.85;;;;;;;0.69;76.77;98718.70;123837;1102;64833;-83
2021/03/22 06:01:43;;;;;;;29.67;20.17;;;;;;;0.67;77.46;98719.66;123868;1102;64869;-85
2021/03/22 06:04:38;;;;;;;27.50;17.07;;;;;;;0.62;76.79;98725.03;123453;1103;64963;-84
2021/03/22 06:07:06;;;;;;;23.93;17.73;;;;;;;0.49;76.56;98739.42;123867;1102;65007;-84
2021/03/22 06:09:52;;;;;;;26.93;18.17;;;;;;;0.39;77.28;98737.06;123819;1102;64917;-83
2021/03/22 06:12:28;;;;;;;26.63;18.30;;;;;;;0.35;77.33;98735.45;123878;1102;64905;-83
2021/03/22 06:15:13;;;;;;;31.73;20.23;;;;;;;0.28;77.36;98738.30;123806;1102;64832;-86
2021/03/22 06:18:13;;;;;;;25.30;17.67;;;;;;;0.15;76.92;98740.41;123785;1102;65045;-84
2021/03/22 06:20:41;;;;;;;28.80;18.80;;;;;;;0.03;77.36;98744.27;123488;1102;64966;-85
2021/03/22 06:23:39;;;;;;;24.33;17.40;;;;;;;-0.03;77.01;98749.66;123526;1102;64889;-84
2021/03/22 06:26:18;;;;;;;24.30;15.87;;;;;;;-0.14;76.88;98752.57;123878;1102;64909;-85
2021/03/22 06:28:56;;;;;;;26.55;17.70;;;;;;;-0.15;77.80;98758.72;123485;1102;65020;-84
2021/03/22 06:31:24;;;;;;;30.43;19.90;;;;;;;-0.10;77.69;98759.45;123512;1102;65006;-84
2021/03/22 06:34:05;;;;;;;26.90;18.27;;;;;;;-0.04;77.70;98766.28;123838;1102;64908;-84
2021/03/22 06:36:32;;;;;;;28.75;17.60;;;;;;;-0.01;77.41;98763.57;123838;1102;64864;-84
2021/03/22 06:39:00;;;;;;;28.70;17.40;;;;;;;0.00;77.43;98765.31;123425;1105;65291;-83
2021/03/22 06:41:38;;;;;;;25.80;16.53;;;;;;;0.05;77.69;98759.91;123838;1102;64892;-84
2021/03/22 06:44:12;;;;;;;22.77;16.60;;;;;;;0.14;77.06;98757.91;123747;1102;64909;-84
2021/03/22 06:47:09;;;;;;;30.03;18.83;;;;;;;0.27;77.30;98768.90;123840;1102;64997;-84
2021/03/22 06:49:58;;;;;;;30.87;19.47;;;;;;;0.41;77.06;98771.11;123825;1102;64866;-84
2021/03/22 06:52:38;;;;;;;28.63;18.73;;;;;;;0.53;76.71;98776.00;123868;1102;64912;-83
2021/03/22 06:55:24;;;;;;;26.85;18.20;;;;;;;0.62;76.59;98780.09;123488;1103;64974;-84
2021/03/22 06:57:51;;;;;;;28.83;17.10;;;;;;;0.69;76.44;98780.78;123843;1102;64992;-84
2021/03/22 07:00:23;;;;;;;24.57;16.60;;;;;;;0.78;76.64;98778.72;123864;1102;64876;-85
2021/03/22 07:02:59;;;;;;;21.83;13.20;;;;;;;0.81;75.24;98781.24;123821;1102;64908;-84
2021/03/22 07:05:28;;;;;;;21.77;13.87;;;;;;;0.88;75.13;98787.17;123476;1102;64944;-84
2021/03/22 07:08:12;;;;;;;26.10;16.35;;;;;;;0.93;75.66;98787.03;123807;1102;64908;-84
2021/03/22 07:10:44;;;;;;;26.10;16.33;;;;;;;1.03;75.04;98796.34;123853;1102;64889;-84
2021/03/22 07:13:26;;;;;;;19.63;13.77;;;;;;;1.14;74.96;98794.22;123866;1102;64987;-84
2021/03/22 07:15:56;;;;;;;18.57;12.97;;;;;;;1.15;74.01;98792.45;123892;1102;64908;-85
2021/03/22 07:18:31;;;;;;;21.10;12.50;;;;;;;1.22;74.54;98796.61;123628;1102;64892;-84
2021/03/22 07:20:57;;;;;;;20.20;13.80;;;;;;;1.36;74.47;98799.63;123547;1105;64920;-85
2021/03/22 07:23:24;;;;;;;17.90;11.40;;;;;;;1.43;73.82;98802.92;123455;1102;64982;-84
2021/03/22 07:26:06;;;;;;;18.55;12.95;;;;;;;1.47;73.44;98801.90;123533;1102;65003;-83
2021/03/22 07:28:35;;;;;;;22.67;12.73;;;;;;;1.49;72.52;98795.69;123852;1102;64910;-83
2021/03/22 07:31:24;;;;;;;20.50;13.33;;;;;;;1.52;72.94;98802.60;123821;1102;64909;-84
2021/03/22 07:34:11;;;;;;;18.85;13.40;;;;;;;1.68;73.66;98808.20;123860;1102;64889;-83
2021/03/22 07:37:15;;;;;;;20.37;12.53;;;;;;;1.72;72.70;98808.05;123849;1102;64866;-83
2021/03/22 07:39:44;;;;;;;19.60;12.23;;;;;;;1.84;72.22;98812.02;123873;1102;64946;-84
2021/03/22 07:42:39;;;;;;;17.27;11.53;;;;;;;1.94;71.88;98812.56;123492;1102;64907;-84
2021/03/22 07:45:27;;;;;;;18.27;11.67;;;;;;;2.02;70.35;98814.92;123849;1102;64889;-83
2021/03/22 07:48:09;;;;;;;19.80;11.87;;;;;;;2.09;70.10;98813.80;123406;1102;64888;-82
2021/03/22 07:50:58;;;;;;;16.80;10.17;;;;;;;2.16;70.57;98812.68;123864;1102;64857;-84
2021/03/22 07:53:51;;;;;;;16.87;11.20;;;;;;;2.24;69.82;98812.37;123479;1103;64937;-84
2021/03/22 07:56:44;;;;;;;13.97;9.17;;;;;;;2.39;70.54;98823.20;123531;1102;64914;-84
2021/03/22 07:59:46;;;;;;;17.23;10.17;;;;;;;2.51;69.50;98821.05;123783;1102;64863;-84
2021/03/22 08:02:48;;;;;;;19.07;11.73;;;;;;;2.58;69.68;98819.89;123551;1102;64879;-84
2021/03/22 08:05:48;;;;;;;14.20;8.17;;;;;;;2.68;68.41;98812.52;123802;1102;64937;-82
2021/03/22 08:08:39;;;;;;;10.90;7.00;;;;;;;2.73;67.98;98816.69;123789;1102;64979;-83
2021/03/22 08:11:19;;;;;;;13.67;7.30;;;;;;;2.79;66.28;98802.43;123790;1102;65120;-82
2021/03/22 08:13:58;;;;;;;10.60;6.47;;;;;;;2.85;67.10;98807.48;123795;1102;64882;-84
2021/03/22 08:16:31;;;;;;;9.30;5.47;;;;;;;2.82;65.67;98810.23;123801;1102;64910;-83
2021/03/22 08:19:22;;;;;;;10.60;6.10;;;;;;;2.88;66.26;98809.14;123767;1102;64930;-83
2021/03/22 08:22:11;;;;;;;12.03;6.23;;;;;;;2.97;65.73;98806.98;123449;1102;65432;-83
2021/03/22 08:24:40;;;;;;;7.30;5.07;;;;;;;2.98;63.19;98808.72;123788;1102;65323;-83
2021/03/22 08:27:19;;;;;;;9.23;5.43;;;;;;;2.92;63.64;98810.72;123823;1102;65301;-83
2021/03/22 08:29:54;;;;;;;10.10;5.40;;;;;;;2.90;63.70;98817.80;123482;1101;65027;-84
2021/03/22 08:32:37;;;;;;;9.97;5.87;;;;;;;2.92;61.94;98816.83;123821;1102;65007;-84
2021/03/22 08:35:38;;;;;;;10.03;5.37;;;;;;;3.00;63.18;98825.31;123804;1102;65004;-84
2021/03/22 08:38:11;;;;;;;8.40;4.77;;;;;;;3.13;62.53;98820.40;123742;1102;64908;-83
2021/03/22 08:40:43;;;;;;;12.43;5.00;;;;;;;3.23;62.50;98823.53;123873;1102;64905;-83
2021/03/22 08:43:28;;;;;;;10.77;5.17;;;;;;;3.34;63.09;98823.10;123820;1102;64786;-83
2021/03/22 08:46:09;;;;;;;8.07;4.23;;;;;;;3.42;62.64;98823.64;123777;1102;64861;-83
2021/03/22 08:48:36;;;;;;;8.80;4.20;;;;;;;3.47;61.17;98814.63;123856;1102;64908;-83
2021/03/22 08:51:13;;;;;;;8.05;4.45;;;;;;;3.46;61.14;98820.83;123499;1102;64977;-83
2021/03/22 08:53:39;;;;;;;9.47;4.97;;;;;;;3.46;61.18;98815.56;123833;1102;65383;-82
2021/03/22 08:56:38;;;;;;;6.70;4.47;;;;;;;3.50;60.80;98829.45;123845;1102;65357;-82
2021/03/22 08:59:11;;;;;;;8.87;4.90;;;;;;;3.62;60.27;98828.96;123891;1102;64908;-82
2021/03/22 09:01:40;;;;;;;10.83;4.93;;;;;;;3.77;58.94;98824.84;123823;1102;64905;-82
2021/03/22 09:04:28;;;;;;;6.73;4.30;;;;;;;3.90;60.16;98830.46;123808;1102;64888;-82
2021/03/22 09:07:07;;;;;;;8.15;4.40;;;;;;;4.05;59.66;98831.56;123829;1102;64911;-83
2021/03/22 09:09:36;;;;;;;8.15;4.20;;;;;;;4.06;57.36;98825.38;123787;1102;64911;-82
2021/03/22 09:12:09;;;;;;;6.37;3.90;;;;;;;4.14;58.02;98832.03;123805;1102;64965;-83
2021/03/22 09:14:45;;;;;;;4.87;3.40;;;;;;;4.28;58.05;98831.42;123866;1102;65016;-83
2021/03/22 09:17:30;;;;;;;6.70;3.23;;;;;;;4.41;55.33;98831.74;123862;1102;64950;-83
2021/03/22 09:20:22;;;;;;;6.50;3.20;;;;;;;4.49;56.57;98826.97;123779;1102;64896;-82
2021/03/22 09:23:00;;;;;;;7.27;3.40;;;;;;;4.83;53.28;98826.30;123833;1102;64834;-83
2021/03/22 09:25:59;;;;;;;5.70;2.80;;;;;;;4.98;51.39;98824.73;123509;1102;65237;-83
2021/03/22 09:28:25;;;;;;;5.90;2.80;;;;;;;5.24;53.63;98820.86;123457;1102;64966;-84
2021/03/22 09:31:17;;;;;;;4.67;2.57;;;;;;;5.49;53.02;98830.23;123827;1102;64892;-83
2021/03/22 09:33:55;;;;;;;4.97;2.63;;;;;;;5.53;50.77;98831.81;123488;1102;64975;-82
2021/03/22 09:36:41;;;;;;;5.53;3.07;;;;;;;5.65;53.23;98832.98;123865;1101;66146;-83
2021/03/22 09:39:13;;;;;;;5.77;2.93;;;;;;;5.89;52.10;98821.16;123468;1102;64865;-83
2021/03/22 09:41:52;;;;;;;4.50;2.83;;;;;;;5.76;48.23;98821.86;123800;1102;65162;-84
2021/03/22 09:44:21;;;;;;;4.80;3.10;;;;;;;5.83;51.18;98817.98;123814;1102;64954;-82
2021/03/22 09:47:13;;;;;;;5.60;2.75;;;;;;;5.91;48.72;98819.30;123560;1102;64917;-82
2021/03/22 09:49:57;;;;;;;5.73;2.63;;;;;;;6.08;51.33;98823.78;123831;1102;64843;-82
2021/03/22 09:52:29;;;;;;;3.95;1.50;;;;;;;6.28;49.85;98817.44;123784;1102;65003;-83
2021/03/22 09:54:56;;;;;;;2.70;1.50;;;;;;;6.50;47.25;98817.19;123876;1102;65014;-83
2021/03/22 09:57:43;;;;;;;3.40;1.77;;;;;;;6.42;48.23;98814.05;123468;1105;65080;-83
2021/03/22 10:00:29;;;;;;;3.83;1.77;;;;;;;6.64;47.78;98818.23;123847;1102;64908;-83
2021/03/22 10:02:58;;;;;;;3.43;1.67;;;;;;;6.70;46.81;98816.09;123815;1100;64885;-82
2021/03/22 10:05:55;;;;;;;4.77;2.00;;;;;;;6.68;44.24;98817.12;123832;1102;64946;-82
2021/03/22 10:08:26;;;;;;;3.53;1.73;;;;;;;6.72;47.03;98816.03;123848;1102;65011;-83
2021/03/22 10:10:58;;;;;;;2.70;1.33;;;;;;;6.92;43.22;98814.92;123840;1102;64889;-83
2021/03/22 10:13:41;;;;;;;2.20;1.33;;;;;;;6.93;45.67;98816.66;123849;1102;64891;-83
2021/03/22 10:16:17;;;;;;;3.00;1.67;;;;;;;6.86;46.23;98813.47;123882;1101;64893;-82
2021/03/22 10:19:13;;;;;;;6.53;2.13;;;;;;;6.74;46.20;98807.06;123775;1102;64905;-82
2021/03/22 10:21:52;;;;;;;5.90;1.77;;;;;;;6.65;45.44;98807.55;123872;1102;64994;-83
2021/03/22 10:25:13;;;;;;;4.93;1.83;;;;;;;6.44;43.60;98806.90;123492;1102;64962;-83
2021/03/22 10:27:41;;;;;;;5.27;2.43;;;;;;;6.20;43.59;98819.63;123422;1105;65129;-82
2021/03/22 10:30:21;;;;;;;5.70;2.60;;;;;;;6.21;45.32;98809.89;123459;1102;65354;-83
2021/03/22 10:33:01;;;;;;;5.03;2.23;;;;;;;6.32;44.45;98819.00;123454;1102;64860;-83
2021/03/22 10:35:56;;;;;;;5.40;2.63;;;;;;;6.37;44.45;98819.63;123845;1102;64972;-82
2021/03/22 10:38:30;;;;;;;13.60;3.87;;;;;;;6.46;44.59;98820.91;123864;1102;64908;-83
2021/03/22 10:40:59;;;;;;;5.73;2.57;;;;;;;6.54;44.33;98812.56;123495;1102;64870;-83
2021/03/22 10:43:40;;;;;;;4.63;2.53;;;;;;;6.51;44.69;98815.38;123499;1102;64912;-84
2021/03/22 10:46:19;;;;;;;4.33;2.40;;;;;;;6.65;44.50;98809.34;123910;1101;64857;-83
2021/03/22 10:49:01;;;;;;;1.65;1.47;;;;;;;6.71;41.96;98804.55;123869;1102;64835;-82
2021/03/22 10:51:43;;;;;;;7.07;3.33;;;;;;;6.78;43.82;98805.94;123764;1102;64988;-83
2021/03/22 10:54:15;;;;;;;8.77;4.90;;;;;;;7.07;44.95;98802.63;123847;1102;64889;-82
2021/03/22 10:56:48;;;;;;;10.97;4.77;;;;;;;7.37;43.87;98807.98;123832;1102;64917;-83
2021/03/22 10:59:26;;;;;;;7.00;4.80;;;;;;;7.47;42.50;98794.12;123819;1102;64892;-83
2021/03/22 11:01:57;;;;;;;10.77;5.07;;;;;;;7.30;42.86;98804.84;123917;1102;64953;-83
2021/03/22 11:04:46;;;;;;;7.60;4.07;;;;;;;7.03;42.12;98802.81;123873;1102;64885;-82
2021/03/22 11:07:27;;;;;;;9.70;4.40;;;;;;;6.80;42.43;98808.52;123471;1102;64995;-83
2021/03/22 11:09:56;;;;;;;8.80;4.20;;;;;;;6.74;41.47;98803.53;123847;1102;64824;-83
2021/03/22 11:12:24;;;;;;;7.85;4.70;;;;;;;6.67;41.56;98803.02;123778;1102;65372;-82
2021/03/22 11:14:55;;;;;;;6.03;3.87;;;;;;;6.70;42.26;98799.36;123881;1102;64933;-83
2021/03/22 11:17:25;;;;;;;8.05;3.75;;;;;;;6.74;41.38;98792.94;123866;1102;64988;-81
2021/03/22 11:19:53;;;;;;;10.25;4.50;;;;;;;6.75;40.69;98794.67;123859;1102;64988;-82
2021/03/22 11:22:25;;;;;;;14.20;8.80;;;;;;;6.75;41.34;98802.61;123834;1102;64847;-81
2021/03/22 11:24:54;;;;;;;7.93;4.10;;;;;;;6.78;40.54;98800.64;123871;1102;64937;-82
2021/03/22 11:27:24;;;;;;;7.93;4.97;;;;;;;6.81;41.38;98800.47;123540;1102;64995;-82
2021/03/22 11:29:59;;;;;;;13.37;5.77;;;;;;;6.84;41.87;98802.09;123448;1102;64943;-82
2021/03/22 11:32:30;;;;;;;15.07;7.30;;;;;;;6.90;40.69;98807.08;123762;1102;64911;-82
2021/03/22 11:34:58;;;;;;;15.00;8.00;;;;;;;6.88;41.82;98806.30;123820;1102;64899;-83
2021/03/22 11:37:31;;;;;;;7.00;3.25;;;;;;;6.81;40.06;98826.11;123749;1102;65103;-83
2021/03/22 11:40:15;;;;;;;5.47;3.37;;;;;;;6.69;40.97;98810.87;123480;1102;65017;-83
2021/03/22 11:43:02;;;;;;;5.15;2.90;;;;;;;6.79;42.34;98812.09;123800;1102;64891;-82
2021/03/22 11:45:45;;;;;;;8.70;3.23;;;;;;;6.91;42.32;98808.77;123828;1102;65013;-83
2021/03/22 11:48:20;;;;;;;4.83;3.57;;;;;;;6.91;41.08;98806.13;123808;1101;64860;-83
2021/03/22 11:51:01;;;;;;;5.47;3.17;;;;;;;6.97;40.56;98800.48;123800;1102;64909;-83
2021/03/22 11:53:29;;;;;;;8.00;3.90;;;;;;;6.93;40.37;98792.81;123810;1102;65001;-83